IBB36VX GCLA-GCLP
Flight info
| Callsign | IBB36VX |
|---|---|
| Flight time | 0h 42m |
| Altitude | 22000 |
| Route | LALTO |
| Aircraft | CRJX/M-SDFGIRWY/S |
Departure
| Time | 2026-04-25 16:40 |
|---|---|
| Airport | La Palma Airport (GCLA) |
Arrival
| Time | 2026-04-25 17:22 |
|---|---|
| Airport | Gran Canaria Airport (GCLP) |
| Time | Latitude | Longitude | Altitude | Speed | Heading |
|---|---|---|---|---|---|
| 2026-04-25 16:24 | 28.62500 | -17.75381 | 94 ft | 0 kts | 90° |
| 2026-04-25 16:33 | 28.62499 | -17.75375 | 96 ft | 3 kts | 104° |
| 2026-04-25 16:33 | 28.62477 | -17.75364 | 97 ft | 12 kts | 187° |
| 2026-04-25 16:33 | 28.62424 | -17.75393 | 97 ft | 8 kts | 201° |
| 2026-04-25 16:33 | 28.62399 | -17.75399 | 97 ft | 4 kts | 183° |
| 2026-04-25 16:34 | 28.62344 | -17.75400 | 100 ft | 17 kts | 178° |
| 2026-04-25 16:34 | 28.62258 | -17.75397 | 99 ft | 6 kts | 180° |
| 2026-04-25 16:34 | 28.62174 | -17.75401 | 100 ft | 23 kts | 183° |
| 2026-04-25 16:34 | 28.62143 | -17.75406 | 101 ft | 0 kts | 196° |
| 2026-04-25 16:35 | 28.62139 | -17.75407 | 101 ft | 6 kts | 197° |
| 2026-04-25 16:35 | 28.62102 | -17.75444 | 102 ft | 4 kts | 235° |
| 2026-04-25 16:35 | 28.62101 | -17.75446 | 102 ft | 0 kts | 236° |
| 2026-04-25 16:37 | 28.62100 | -17.75448 | 102 ft | 3 kts | 237° |
| 2026-04-25 16:37 | 28.62050 | -17.75542 | 103 ft | 25 kts | 206° |
| 2026-04-25 16:38 | 28.61903 | -17.75570 | 106 ft | 22 kts | 179° |
| 2026-04-25 16:38 | 28.61740 | -17.75568 | 107 ft | 25 kts | 186° |
| 2026-04-25 16:38 | 28.61636 | -17.75560 | 107 ft | 2 kts | 98° |
| 2026-04-25 16:38 | 28.61645 | -17.75542 | 108 ft | 4 kts | 37° |
| 2026-04-25 16:39 | 28.61719 | -17.75541 | 106 ft | 32 kts | 359° |
| 2026-04-25 16:39 | 28.62215 | -17.75550 | 102 ft | 111 kts | 359° |
| 2026-04-25 16:39 | 28.63221 | -17.75569 | 82 ft | 175 kts | 359° |
| 2026-04-25 16:39 | 28.64552 | -17.75593 | 658 ft | 201 kts | 0° |
| 2026-04-25 16:40 | 28.65974 | -17.75525 | 1748 ft | 206 kts | 11° |
| 2026-04-25 16:40 | 28.67292 | -17.74910 | 2932 ft | 208 kts | 36° |
| 2026-04-25 16:40 | 28.68285 | -17.73657 | 3845 ft | 221 kts | 55° |
| 2026-04-25 16:40 | 28.69084 | -17.72152 | 4883 ft | 221 kts | 52° |
| 2026-04-25 16:41 | 28.70070 | -17.70847 | 5840 ft | 220 kts | 41° |
| 2026-04-25 16:41 | 28.70799 | -17.70013 | 6486 ft | 220 kts | 42° |
| 2026-04-25 16:41 | 28.73358 | -17.67131 | 8126 ft | 241 kts | 41° |
| 2026-04-25 16:42 | 28.74596 | -17.65751 | 8664 ft | 257 kts | 41° |
| 2026-04-25 16:42 | 28.75921 | -17.64286 | 9207 ft | 273 kts | 41° |
| 2026-04-25 16:42 | 28.77326 | -17.62743 | 9764 ft | 288 kts | 42° |
| 2026-04-25 16:42 | 28.78811 | -17.61123 | 10284 ft | 303 kts | 41° |
| 2026-04-25 16:43 | 28.80372 | -17.59425 | 10788 ft | 316 kts | 41° |
| 2026-04-25 16:43 | 28.81997 | -17.57660 | 11295 ft | 328 kts | 42° |
| 2026-04-25 16:43 | 28.83679 | -17.55831 | 11805 ft | 339 kts | 41° |
| 2026-04-25 16:43 | 28.85389 | -17.53969 | 12286 ft | 345 kts | 42° |
| 2026-04-25 16:44 | 28.87140 | -17.52060 | 12801 ft | 349 kts | 42° |
| 2026-04-25 16:44 | 28.88901 | -17.50136 | 13307 ft | 353 kts | 41° |
| 2026-04-25 16:44 | 28.90683 | -17.48190 | 13831 ft | 356 kts | 42° |
| 2026-04-25 16:44 | 28.92480 | -17.46226 | 14297 ft | 359 kts | 41° |
| 2026-04-25 16:45 | 28.94293 | -17.44246 | 14766 ft | 362 kts | 42° |
| 2026-04-25 16:45 | 28.96120 | -17.42249 | 15244 ft | 364 kts | 41° |
| 2026-04-25 16:45 | 28.97933 | -17.40265 | 15706 ft | 366 kts | 41° |
| 2026-04-25 16:45 | 28.99771 | -17.38247 | 16205 ft | 367 kts | 42° |
| 2026-04-25 16:46 | 29.01509 | -17.36105 | 16692 ft | 368 kts | 47° |
| 2026-04-25 16:46 | 29.03128 | -17.33837 | 17188 ft | 368 kts | 50° |
| 2026-04-25 16:46 | 29.04669 | -17.31510 | 17689 ft | 366 kts | 49° |
| 2026-04-25 16:46 | 29.05862 | -17.30169 | 18014 ft | 360 kts | 34° |
| 2026-04-25 16:47 | 29.08390 | -17.27699 | 18646 ft | 361 kts | 54° |
| 2026-04-25 16:47 | 29.09307 | -17.25040 | 19105 ft | 363 kts | 81° |
| 2026-04-25 16:47 | 29.09151 | -17.22217 | 19578 ft | 361 kts | 107° |
| 2026-04-25 16:47 | 29.07984 | -17.19723 | 20080 ft | 355 kts | 133° |
| 2026-04-25 16:48 | 29.06050 | -17.18065 | 20586 ft | 344 kts | 160° |
| 2026-04-25 16:48 | 29.03773 | -17.17539 | 21117 ft | 328 kts | 184° |
| 2026-04-25 16:48 | 29.01516 | -17.17609 | 21614 ft | 321 kts | 186° |
| 2026-04-25 16:48 | 28.99278 | -17.17525 | 21863 ft | 327 kts | 176° |
| 2026-04-25 16:49 | 28.97014 | -17.17008 | 21974 ft | 337 kts | 166° |
| 2026-04-25 16:49 | 28.94895 | -17.15774 | 22022 ft | 351 kts | 141° |
| 2026-04-25 16:49 | 28.93148 | -17.13769 | 22072 ft | 361 kts | 133° |
| 2026-04-25 16:49 | 28.91496 | -17.11603 | 22088 ft | 371 kts | 131° |
| 2026-04-25 16:50 | 28.89806 | -17.09328 | 22091 ft | 380 kts | 131° |
| 2026-04-25 16:50 | 28.88074 | -17.06995 | 22092 ft | 390 kts | 131° |
| 2026-04-25 16:50 | 28.86299 | -17.04606 | 22095 ft | 398 kts | 131° |
| 2026-04-25 16:50 | 28.84481 | -17.02165 | 22087 ft | 407 kts | 131° |
| 2026-04-25 16:51 | 28.82629 | -16.99678 | 22082 ft | 415 kts | 131° |
| 2026-04-25 16:51 | 28.80744 | -16.97144 | 22078 ft | 422 kts | 131° |
| 2026-04-25 16:51 | 28.78828 | -16.94570 | 22074 ft | 429 kts | 131° |
| 2026-04-25 16:51 | 28.77538 | -16.92838 | 22072 ft | 433 kts | 131° |
| 2026-04-25 16:52 | 28.74925 | -16.89331 | 22067 ft | 431 kts | 131° |
| 2026-04-25 16:52 | 28.73004 | -16.86745 | 22050 ft | 423 kts | 131° |
| 2026-04-25 16:52 | 28.71113 | -16.84209 | 22041 ft | 416 kts | 131° |
| 2026-04-25 16:52 | 28.69273 | -16.81745 | 22036 ft | 410 kts | 131° |
| 2026-04-25 16:53 | 28.65630 | -16.76863 | 22035 ft | 399 kts | 131° |
| 2026-04-25 16:53 | 28.63847 | -16.74472 | 22036 ft | 394 kts | 131° |
| 2026-04-25 16:53 | 28.62086 | -16.72109 | 22041 ft | 390 kts | 131° |
| 2026-04-25 16:54 | 28.60342 | -16.69766 | 22049 ft | 385 kts | 131° |
| 2026-04-25 16:54 | 28.58614 | -16.67447 | 22045 ft | 382 kts | 131° |
| 2026-04-25 16:54 | 28.56904 | -16.65148 | 22049 ft | 379 kts | 131° |
| 2026-04-25 16:54 | 28.55210 | -16.62871 | 22044 ft | 376 kts | 131° |
| 2026-04-25 16:55 | 28.53526 | -16.60607 | 22045 ft | 373 kts | 131° |
| 2026-04-25 16:55 | 28.51856 | -16.58370 | 22055 ft | 370 kts | 131° |
| 2026-04-25 16:55 | 28.50210 | -16.56170 | 22037 ft | 368 kts | 131° |
| 2026-04-25 16:55 | 28.48558 | -16.53961 | 22049 ft | 366 kts | 131° |
| 2026-04-25 16:56 | 28.46920 | -16.51767 | 22054 ft | 364 kts | 131° |
| 2026-04-25 16:56 | 28.45286 | -16.49579 | 22057 ft | 362 kts | 131° |
| 2026-04-25 16:56 | 28.43655 | -16.47398 | 22065 ft | 360 kts | 131° |
| 2026-04-25 16:56 | 28.42032 | -16.45224 | 22077 ft | 361 kts | 131° |
| 2026-04-25 16:57 | 28.40405 | -16.43044 | 22085 ft | 362 kts | 131° |
| 2026-04-25 16:57 | 28.39326 | -16.41598 | 22078 ft | 362 kts | 131° |
| 2026-04-25 16:57 | 28.37162 | -16.38698 | 22065 ft | 364 kts | 131° |
| 2026-04-25 16:57 | 28.35517 | -16.36494 | 22066 ft | 367 kts | 131° |
| 2026-04-25 16:58 | 28.33864 | -16.34273 | 22109 ft | 369 kts | 131° |
| 2026-04-25 16:58 | 28.32235 | -16.32010 | 22132 ft | 371 kts | 130° |
| 2026-04-25 16:58 | 28.30612 | -16.29719 | 22119 ft | 374 kts | 130° |
| 2026-04-25 16:58 | 28.28976 | -16.27403 | 22099 ft | 377 kts | 130° |
| 2026-04-25 16:59 | 28.27334 | -16.25070 | 22080 ft | 380 kts | 130° |
| 2026-04-25 16:59 | 28.25683 | -16.22719 | 22058 ft | 382 kts | 130° |
| 2026-04-25 16:59 | 28.24021 | -16.20356 | 22054 ft | 384 kts | 130° |
| 2026-04-25 16:59 | 28.22351 | -16.17984 | 22050 ft | 386 kts | 130° |
| 2026-04-25 17:00 | 28.20670 | -16.15604 | 22046 ft | 387 kts | 130° |
| 2026-04-25 17:00 | 28.18983 | -16.13220 | 22044 ft | 389 kts | 130° |
| 2026-04-25 17:00 | 28.17286 | -16.10825 | 22042 ft | 390 kts | 130° |
| 2026-04-25 17:00 | 28.15582 | -16.08422 | 22035 ft | 392 kts | 130° |
| 2026-04-25 17:01 | 28.13888 | -16.06038 | 22036 ft | 393 kts | 130° |
| 2026-04-25 17:01 | 28.12166 | -16.03618 | 22034 ft | 394 kts | 130° |
| 2026-04-25 17:01 | 28.10435 | -16.01188 | 22032 ft | 396 kts | 130° |
| 2026-04-25 17:01 | 28.08702 | -15.98761 | 22038 ft | 397 kts | 130° |
| 2026-04-25 17:02 | 28.06963 | -15.96326 | 22029 ft | 398 kts | 130° |
| 2026-04-25 17:02 | 28.05213 | -15.93882 | 22027 ft | 399 kts | 130° |
| 2026-04-25 17:02 | 28.03462 | -15.91436 | 22023 ft | 400 kts | 130° |
| 2026-04-25 17:02 | 28.01708 | -15.88991 | 22011 ft | 400 kts | 130° |
| 2026-04-25 17:03 | 27.99952 | -15.86542 | 22014 ft | 401 kts | 130° |
| 2026-04-25 17:03 | 27.98212 | -15.84120 | 22018 ft | 402 kts | 130° |
| 2026-04-25 17:03 | 27.96440 | -15.81656 | 22028 ft | 403 kts | 130° |
| 2026-04-25 17:03 | 27.94628 | -15.79234 | 21988 ft | 404 kts | 135° |
| 2026-04-25 17:04 | 27.92398 | -15.77365 | 21462 ft | 396 kts | 153° |
| 2026-04-25 17:04 | 27.89970 | -15.75905 | 20958 ft | 393 kts | 156° |
| 2026-04-25 17:04 | 27.87533 | -15.74521 | 20444 ft | 390 kts | 156° |
| 2026-04-25 17:04 | 27.85126 | -15.73172 | 19944 ft | 380 kts | 156° |
| 2026-04-25 17:05 | 27.82782 | -15.71859 | 19446 ft | 372 kts | 156° |
| 2026-04-25 17:05 | 27.78252 | -15.69326 | 18468 ft | 359 kts | 156° |
| 2026-04-25 17:05 | 27.76033 | -15.68084 | 17947 ft | 354 kts | 156° |
| 2026-04-25 17:06 | 27.73840 | -15.66862 | 17375 ft | 349 kts | 156° |
| 2026-04-25 17:06 | 27.71666 | -15.65654 | 16842 ft | 345 kts | 156° |
| 2026-04-25 17:06 | 27.69518 | -15.64467 | 16316 ft | 343 kts | 156° |
| 2026-04-25 17:06 | 27.67366 | -15.63290 | 15810 ft | 344 kts | 156° |
| 2026-04-25 17:07 | 27.65207 | -15.62120 | 15301 ft | 343 kts | 156° |
| 2026-04-25 17:07 | 27.63115 | -15.60993 | 14817 ft | 332 kts | 156° |
| 2026-04-25 17:07 | 27.61040 | -15.59879 | 14303 ft | 327 kts | 156° |
| 2026-04-25 17:07 | 27.58997 | -15.58785 | 13810 ft | 322 kts | 156° |
| 2026-04-25 17:08 | 27.56983 | -15.57717 | 13258 ft | 318 kts | 156° |
| 2026-04-25 17:08 | 27.54991 | -15.56664 | 12713 ft | 314 kts | 156° |
| 2026-04-25 17:08 | 27.53011 | -15.55586 | 12194 ft | 319 kts | 151° |
| 2026-04-25 17:08 | 27.51361 | -15.53910 | 11675 ft | 323 kts | 127° |
| 2026-04-25 17:09 | 27.49991 | -15.51901 | 11185 ft | 323 kts | 125° |
| 2026-04-25 17:09 | 27.49043 | -15.49659 | 10687 ft | 322 kts | 102° |
| 2026-04-25 17:09 | 27.48971 | -15.47174 | 10202 ft | 318 kts | 77° |
| 2026-04-25 17:09 | 27.49780 | -15.44924 | 9757 ft | 305 kts | 52° |
| 2026-04-25 17:10 | 27.51302 | -15.43320 | 9236 ft | 298 kts | 27° |
| 2026-04-25 17:10 | 27.53250 | -15.42627 | 8733 ft | 291 kts | 3° |
| 2026-04-25 17:10 | 27.55266 | -15.42564 | 8253 ft | 289 kts | 358° |
| 2026-04-25 17:10 | 27.57271 | -15.42631 | 7735 ft | 287 kts | 356° |
| 2026-04-25 17:11 | 27.59265 | -15.42763 | 7237 ft | 285 kts | 352° |
| 2026-04-25 17:11 | 27.61085 | -15.43512 | 6737 ft | 284 kts | 326° |
| 2026-04-25 17:11 | 27.62574 | -15.44957 | 6250 ft | 281 kts | 320° |
| 2026-04-25 17:11 | 27.63827 | -15.46634 | 5707 ft | 281 kts | 298° |
| 2026-04-25 17:12 | 27.64289 | -15.48766 | 5210 ft | 283 kts | 272° |
| 2026-04-25 17:12 | 27.63816 | -15.50920 | 4712 ft | 287 kts | 244° |
| 2026-04-25 17:12 | 27.62523 | -15.52633 | 4204 ft | 291 kts | 218° |
| 2026-04-25 17:12 | 27.60676 | -15.53546 | 3710 ft | 292 kts | 191° |
| 2026-04-25 17:13 | 27.58670 | -15.53465 | 3335 ft | 287 kts | 163° |
| 2026-04-25 17:13 | 27.58036 | -15.53207 | 3260 ft | 283 kts | 153° |
| 2026-04-25 17:13 | 27.55984 | -15.50716 | 3094 ft | 249 kts | 103° |
| 2026-04-25 17:13 | 27.55887 | -15.48896 | 3059 ft | 222 kts | 70° |
| 2026-04-25 17:14 | 27.56591 | -15.47521 | 3049 ft | 196 kts | 36° |
| 2026-04-25 17:14 | 27.57808 | -15.46988 | 3035 ft | 196 kts | 1° |
| 2026-04-25 17:14 | 27.59241 | -15.46948 | 3054 ft | 215 kts | 358° |
| 2026-04-25 17:14 | 27.60751 | -15.46974 | 3054 ft | 214 kts | 357° |
| 2026-04-25 17:15 | 27.62208 | -15.47030 | 3018 ft | 205 kts | 356° |
| 2026-04-25 17:15 | 27.63603 | -15.47085 | 3037 ft | 199 kts | 357° |
| 2026-04-25 17:15 | 27.64997 | -15.47152 | 3033 ft | 206 kts | 356° |
| 2026-04-25 17:15 | 27.66480 | -15.47224 | 3038 ft | 219 kts | 356° |
| 2026-04-25 17:16 | 27.67996 | -15.47307 | 3030 ft | 216 kts | 356° |
| 2026-04-25 17:16 | 27.69493 | -15.47379 | 3011 ft | 214 kts | 357° |
| 2026-04-25 17:16 | 27.71003 | -15.47404 | 2954 ft | 221 kts | 7° |
| 2026-04-25 17:16 | 27.72507 | -15.46994 | 2965 ft | 224 kts | 14° |
| 2026-04-25 17:17 | 27.73978 | -15.46506 | 2969 ft | 218 kts | 14° |
| 2026-04-25 17:17 | 27.75399 | -15.46039 | 3016 ft | 201 kts | 15° |
| 2026-04-25 17:17 | 27.76626 | -15.45637 | 3036 ft | 175 kts | 14° |
| 2026-04-25 17:17 | 27.77831 | -15.45242 | 3043 ft | 182 kts | 14° |
| 2026-04-25 17:18 | 27.79061 | -15.44842 | 2810 ft | 184 kts | 15° |
| 2026-04-25 17:18 | 27.80265 | -15.44412 | 2558 ft | 176 kts | 18° |
| 2026-04-25 17:18 | 27.81333 | -15.43959 | 2349 ft | 150 kts | 20° |
| 2026-04-25 17:18 | 27.82242 | -15.43565 | 2100 ft | 131 kts | 21° |
| 2026-04-25 17:19 | 27.83056 | -15.43192 | 1876 ft | 126 kts | 20° |
| 2026-04-25 17:19 | 27.83611 | -15.42943 | 1806 ft | 133 kts | 21° |
| 2026-04-25 17:19 | 27.84523 | -15.42544 | 1688 ft | 144 kts | 22° |
| 2026-04-25 17:19 | 27.85439 | -15.42115 | 1485 ft | 140 kts | 21° |
| 2026-04-25 17:20 | 27.86319 | -15.41720 | 1264 ft | 130 kts | 21° |
| 2026-04-25 17:20 | 27.87387 | -15.41267 | 1011 ft | 118 kts | 23° |
| 2026-04-25 17:20 | 27.87886 | -15.41045 | 944 ft | 112 kts | 23° |
| 2026-04-25 17:20 | 27.88594 | -15.40711 | 800 ft | 107 kts | 25° |
| 2026-04-25 17:21 | 27.89281 | -15.40391 | 527 ft | 116 kts | 25° |
| 2026-04-25 17:21 | 27.90008 | -15.40063 | 399 ft | 117 kts | 24° |
| 2026-04-25 17:21 | 27.90796 | -15.39703 | 325 ft | 128 kts | 20° |
| 2026-04-25 17:21 | 27.91603 | -15.39362 | 154 ft | 116 kts | 22° |
| 2026-04-25 17:22 | 27.92303 | -15.39049 | 60 ft | 101 kts | 22° |
| 2026-04-25 17:22 | 27.92508 | -15.38955 | 59 ft | 0 kts | 22° |